Time;durP1;ratioP1;P1;durP2;ratioP2;P2;SDS_P1;SDS_P2;PMS_P1;PMS_P2;Temp;Humidity;BMP_temperature;BMP_pressure;BME280_temperature;BME280_humidity;BME280_pressure;Samples;Min_cycle;Max_cycle;Signal;HPM_P1;HPM_P2
2021/07/18 00:02:07;;;;;;;12.83;12.13;;;19.10;99.90;;;;;;5010438;28;20506;-67
2021/07/18 00:04:34;;;;;;;12.20;11.43;;;19.10;99.90;;;;;;5010855;28;20446;-68
2021/07/18 00:07:02;;;;;;;12.37;11.77;;;19.10;99.90;;;;;;5010899;28;20442;-68
2021/07/18 00:09:28;;;;;;;12.47;11.67;;;19.00;99.90;;;;;;5010446;28;20836;-67
2021/07/18 00:11:55;;;;;;;12.57;11.87;;;19.00;99.90;;;;;;5012405;28;20890;-68
2021/07/18 00:14:22;;;;;;;12.57;11.67;;;19.00;99.90;;;;;;5014195;28;20458;-67
2021/07/18 00:16:49;;;;;;;12.43;11.83;;;18.90;99.90;;;;;;5014206;28;20505;-68
2021/07/18 00:19:16;;;;;;;12.30;11.50;;;18.90;99.90;;;;;;5013878;28;20446;-68
2021/07/18 00:21:42;;;;;;;12.50;11.50;;;18.80;99.90;;;;;;5013578;28;20474;-66
2021/07/18 00:24:10;;;;;;;12.17;11.37;;;18.80;99.90;;;;;;5013845;28;20516;-67
2021/07/18 00:26:37;;;;;;;12.47;11.50;;;18.80;99.90;;;;;;5013887;28;20445;-67
2021/07/18 00:29:07;;;;;;;12.27;11.37;;;18.70;99.90;;;;;;5013673;28;20453;-67
2021/07/18 00:31:33;;;;;;;11.30;10.40;;;18.70;99.90;;;;;;5021565;22;20486;-65
2021/07/18 00:34:00;;;;;;;11.67;10.87;;;18.60;99.90;;;;;;5013503;28;20442;-64
2021/07/18 00:36:27;;;;;;;11.63;10.97;;;18.60;99.90;;;;;;5013308;28;20485;-64
2021/07/18 00:38:53;;;;;;;12.03;11.27;;;18.60;99.90;;;;;;5013342;28;20454;-65
2021/07/18 00:41:22;;;;;;;12.63;11.60;;;18.50;99.90;;;;;;5013166;28;20470;-65
2021/07/18 00:43:49;;;;;;;12.20;11.20;;;18.50;99.90;;;;;;5013656;28;20980;-66
2021/07/18 00:46:16;;;;;;;12.57;11.43;;;18.40;99.90;;;;;;5013513;28;20450;-65
2021/07/18 00:48:42;;;;;;;11.00;10.37;;;18.40;99.90;;;;;;5013527;28;20810;-65
2021/07/18 00:51:09;;;;;;;12.20;11.40;;;18.30;99.90;;;;;;5012653;28;21033;-64
2021/07/18 00:53:36;;;;;;;11.80;10.70;;;18.30;99.90;;;;;;5013445;28;20443;-63
2021/07/18 00:56:03;;;;;;;11.43;10.60;;;18.30;99.90;;;;;;5013266;28;20477;-65
2021/07/18 00:58:32;;;;;;;11.50;10.80;;;18.20;99.90;;;;;;5013208;28;20450;-63
2021/07/18 01:01:00;;;;;;;14.20;13.20;;;18.30;99.90;;;;;;5012506;28;20461;-65
2021/07/18 01:03:28;;;;;;;10.90;10.20;;;18.20;99.90;;;;;;5012209;28;20457;-66
2021/07/18 01:05:55;;;;;;;10.70;9.83;;;18.20;99.90;;;;;;5013666;28;20453;-66
2021/07/18 01:08:22;;;;;;;11.00;10.00;;;18.20;99.90;;;;;;5012703;28;20454;-65
2021/07/18 01:10:49;;;;;;;12.00;11.00;;;18.10;99.90;;;;;;5012883;28;20446;-65
2021/07/18 01:13:16;;;;;;;11.33;10.43;;;18.30;99.90;;;;;;5012810;28;20446;-65
2021/07/18 01:15:45;;;;;;;11.73;10.83;;;18.30;99.90;;;;;;5013050;28;20509;-65
2021/07/18 01:18:13;;;;;;;11.57;10.40;;;18.20;99.90;;;;;;5012816;28;20936;-65
2021/07/18 01:20:41;;;;;;;10.07;9.47;;;18.20;99.90;;;;;;5013022;28;20952;-65
2021/07/18 01:23:10;;;;;;;11.43;10.60;;;18.20;99.90;;;;;;5012163;28;20454;-65
2021/07/18 01:25:38;;;;;;;11.20;10.40;;;18.30;99.90;;;;;;5012871;28;20446;-65
2021/07/18 01:28:07;;;;;;;11.37;10.63;;;18.30;99.90;;;;;;5012731;28;20443;-65
2021/07/18 01:30:33;;;;;;;11.23;10.53;;;18.40;99.90;;;;;;5012414;28;20438;-65
2021/07/18 01:33:00;;;;;;;10.63;9.97;;;18.30;99.90;;;;;;5012355;28;20839;-64
2021/07/18 01:35:29;;;;;;;11.73;10.53;;;18.20;99.90;;;;;;5012285;28;20452;-65
2021/07/18 01:37:57;;;;;;;10.70;9.80;;;18.30;99.90;;;;;;5012570;28;20454;-65
2021/07/18 01:40:25;;;;;;;11.60;10.90;;;18.40;99.90;;;;;;5012487;28;20446;-63
2021/07/18 01:42:54;;;;;;;10.63;9.97;;;18.40;99.90;;;;;;5011818;28;20959;-65
2021/07/18 01:45:21;;;;;;;10.80;10.10;;;18.40;99.90;;;;;;5012912;28;20464;-63
2021/07/18 01:47:48;;;;;;;10.57;9.67;;;18.50;99.90;;;;;;5012169;28;20848;-65
2021/07/18 01:50:15;;;;;;;11.67;10.80;;;18.40;99.90;;;;;;5012243;28;20856;-65
2021/07/18 01:52:43;;;;;;;10.70;10.10;;;18.50;99.90;;;;;;5012130;28;20470;-65
2021/07/18 01:55:11;;;;;;;11.07;10.47;;;18.50;99.90;;;;;;5012141;28;20450;-63
2021/07/18 01:57:39;;;;;;;12.00;11.00;;;18.30;99.90;;;;;;5012275;28;20486;-63
2021/07/18 02:00:08;;;;;;;11.20;10.30;;;18.30;99.90;;;;;;5012117;28;20454;-65
2021/07/18 02:02:35;;;;;;;11.80;10.97;;;18.20;99.90;;;;;;5011634;28;20807;-65
2021/07/18 02:05:02;;;;;;;10.63;9.87;;;18.30;99.90;;;;;;5012044;28;20461;-65
2021/07/18 02:07:28;;;;;;;10.73;10.13;;;18.20;99.90;;;;;;5011248;28;20446;-65
2021/07/18 02:09:56;;;;;;;10.37;9.77;;;18.20;99.90;;;;;;5011801;28;20462;-65
2021/07/18 02:12:23;;;;;;;10.93;10.30;;;18.30;99.90;;;;;;5011391;28;20476;-65
2021/07/18 02:14:51;;;;;;;11.90;10.87;;;18.20;99.90;;;;;;5011951;28;20454;-65
2021/07/18 02:17:17;;;;;;;11.00;10.30;;;18.20;99.90;;;;;;5011603;28;20490;-65
2021/07/18 02:19:44;;;;;;;10.80;10.13;;;18.20;99.90;;;;;;5011752;28;20453;-65
2021/07/18 02:22:11;;;;;;;11.50;10.80;;;18.30;99.90;;;;;;5011141;28;20473;-65
2021/07/18 02:24:38;;;;;;;12.40;11.47;;;18.20;99.90;;;;;;5011963;28;20521;-65
2021/07/18 02:27:07;;;;;;;10.57;9.87;;;18.10;99.90;;;;;;5011755;28;20446;-65
2021/07/18 02:29:34;;;;;;;11.43;10.80;;;18.10;99.90;;;;;;5011020;28;20449;-63
2021/07/18 02:32:02;;;;;;;11.90;11.00;;;18.20;99.90;;;;;;5011449;28;20477;-67
2021/07/18 02:34:28;;;;;;;11.67;10.70;;;18.20;99.90;;;;;;5010838;28;20456;-65
2021/07/18 02:36:55;;;;;;;12.23;11.37;;;18.10;99.90;;;;;;5011537;28;20493;-63
2021/07/18 02:39:22;;;;;;;12.10;11.10;;;18.00;99.90;;;;;;5011273;28;20461;-65
2021/07/18 02:41:49;;;;;;;12.77;11.63;;;18.00;99.90;;;;;;5011494;28;20544;-65
2021/07/18 02:44:15;;;;;;;9.77;9.17;;;18.00;99.90;;;;;;5011238;28;20457;-65
2021/07/18 02:46:42;;;;;;;12.00;11.33;;;18.00;99.90;;;;;;5011469;28;20434;-64
2021/07/18 02:49:10;;;;;;;11.27;10.50;;;18.00;99.90;;;;;;5010956;28;20472;-65
2021/07/18 02:51:37;;;;;;;10.80;10.00;;;18.00;99.90;;;;;;5010887;28;20478;-68
2021/07/18 02:54:04;;;;;;;10.53;9.83;;;18.00;99.90;;;;;;5011587;28;20542;-68
2021/07/18 02:56:31;;;;;;;11.77;10.60;;;18.00;99.90;;;;;;5003996;28;20498;-68
2021/07/18 02:58:57;;;;;;;11.33;10.60;;;18.00;99.90;;;;;;5010309;28;20450;-64
2021/07/18 03:01:24;;;;;;;10.60;9.80;;;18.00;99.90;;;;;;5011116;28;20473;-64
2021/07/18 03:03:51;;;;;;;12.50;11.40;;;18.00;99.90;;;;;;5011881;28;20446;-63
2021/07/18 03:06:19;;;;;;;11.67;10.50;;;17.90;99.90;;;;;;4996822;28;20450;-64
2021/07/18 03:08:45;;;;;;;11.10;10.40;;;17.90;99.90;;;;;;4992083;28;20447;-63
2021/07/18 03:11:12;;;;;;;11.77;10.67;;;17.90;99.90;;;;;;4991653;28;20486;-64
2021/07/18 03:13:39;;;;;;;11.90;10.77;;;17.90;99.90;;;;;;4992278;28;20800;-64
2021/07/18 03:16:06;;;;;;;11.23;10.40;;;17.80;99.90;;;;;;4992038;28;20454;-64
2021/07/18 03:18:33;;;;;;;11.10;10.30;;;17.90;99.90;;;;;;4992077;28;20845;-64
2021/07/18 03:20:59;;;;;;;12.10;11.10;;;17.90;99.90;;;;;;4991652;28;20466;-64
2021/07/18 03:23:27;;;;;;;10.87;10.23;;;17.80;99.90;;;;;;4991882;28;20465;-64
2021/07/18 03:25:54;;;;;;;10.43;9.77;;;17.70;99.90;;;;;;5000534;28;20446;-64
2021/07/18 03:28:22;;;;;;;11.70;11.00;;;17.70;99.90;;;;;;5011400;28;20485;-65
2021/07/18 03:30:50;;;;;;;11.33;10.30;;;17.70;99.90;;;;;;5011373;28;20450;-64
2021/07/18 03:33:16;;;;;;;12.30;11.20;;;17.70;99.90;;;;;;5011260;28;20449;-65
2021/07/18 03:35:43;;;;;;;11.50;10.60;;;17.70;99.90;;;;;;5011425;28;20449;-64
2021/07/18 03:38:10;;;;;;;12.10;11.20;;;17.80;99.90;;;;;;5011444;28;20450;-64
2021/07/18 03:40:38;;;;;;;12.40;11.50;;;17.70;99.90;;;;;;5011098;28;20454;-64
2021/07/18 03:43:04;;;;;;;10.00;9.40;;;17.60;99.90;;;;;;5010807;28;20457;-63
2021/07/18 03:45:31;;;;;;;11.53;10.73;;;17.60;99.90;;;;;;5012899;28;20445;-68
2021/07/18 03:47:58;;;;;;;11.83;10.90;;;17.60;99.90;;;;;;5015234;28;20942;-69
2021/07/18 03:50:25;;;;;;;11.47;10.53;;;17.60;99.90;;;;;;5015153;28;20445;-68
2021/07/18 03:52:51;;;;;;;10.80;10.00;;;17.50;99.90;;;;;;5014821;28;20496;-68
2021/07/18 03:55:18;;;;;;;11.73;10.80;;;17.50;99.90;;;;;;5014838;28;20450;-67
2021/07/18 03:57:46;;;;;;;10.77;9.87;;;17.40;99.90;;;;;;5015124;28;20449;-67
2021/07/18 04:00:15;;;;;;;10.80;9.90;;;17.40;99.90;;;;;;5014506;28;20859;-66
2021/07/18 04:02:41;;;;;;;11.27;10.50;;;17.30;99.90;;;;;;5014529;28;20469;-68
2021/07/18 04:05:09;;;;;;;11.50;10.40;;;17.40;99.90;;;;;;5014920;28;20442;-68
2021/07/18 04:07:35;;;;;;;12.07;10.97;;;17.30;99.90;;;;;;5014338;28;20482;-67
2021/07/18 04:10:03;;;;;;;11.23;10.33;;;17.30;99.90;;;;;;5014617;28;20456;-68
2021/07/18 04:12:30;;;;;;;12.40;9.73;;;17.30;99.90;;;;;;5014126;28;20477;-68
2021/07/18 04:14:58;;;;;;;10.73;9.83;;;17.20;99.90;;;;;;5014612;28;20464;-69
2021/07/18 04:17:25;;;;;;;9.93;8.93;;;17.20;99.90;;;;;;5014662;28;20950;-65
2021/07/18 04:19:51;;;;;;;9.70;8.80;;;17.20;99.90;;;;;;5014714;28;20790;-66
2021/07/18 04:22:18;;;;;;;11.33;10.33;;;17.20;99.90;;;;;;5014153;28;20465;-66
2021/07/18 04:24:45;;;;;;;10.20;9.40;;;17.10;99.90;;;;;;5014358;28;20844;-66
2021/07/18 04:27:12;;;;;;;9.93;9.07;;;17.10;99.90;;;;;;5014205;28;20474;-66
2021/07/18 04:29:38;;;;;;;14.23;10.43;;;17.10;99.90;;;;;;5014478;28;20453;-66
2021/07/18 04:32:08;;;;;;;10.90;9.80;;;17.10;99.90;;;;;;5014074;28;20480;-65
2021/07/18 04:34:35;;;;;;;13.00;10.00;;;17.10;99.90;;;;;;5014324;28;20446;-66
2021/07/18 04:37:01;;;;;;;11.43;10.43;;;17.10;99.90;;;;;;5014226;28;20450;-66
2021/07/18 04:39:28;;;;;;;13.17;11.87;;;17.10;99.90;;;;;;5014239;28;20453;-68
2021/07/18 04:41:55;;;;;;;10.33;9.47;;;17.10;99.90;;;;;;5013749;28;20473;-67
2021/07/18 04:44:22;;;;;;;10.90;9.87;;;17.10;99.90;;;;;;5014219;28;20828;-66
2021/07/18 04:46:49;;;;;;;10.30;9.40;;;17.20;99.90;;;;;;5014331;28;20991;-68
2021/07/18 04:49:17;;;;;;;10.77;9.60;;;17.20;99.90;;;;;;5014086;28;20446;-68
2021/07/18 04:51:44;;;;;;;11.93;10.73;;;17.30;99.90;;;;;;5013832;28;20959;-66
2021/07/18 04:54:11;;;;;;;13.93;10.37;;;17.40;99.90;;;;;;5014197;28;20445;-67
2021/07/18 04:56:37;;;;;;;11.63;10.73;;;17.40;99.90;;;;;;5013090;28;20442;-60
2021/07/18 04:59:04;;;;;;;10.87;9.97;;;17.40;99.90;;;;;;5013691;28;20446;-62
2021/07/18 05:01:31;;;;;;;14.00;10.73;;;17.50;99.90;;;;;;5013318;28;20465;-64
2021/07/18 05:03:58;;;;;;;12.00;10.90;;;17.70;99.90;;;;;;5013373;28;20450;-64
2021/07/18 05:06:26;;;;;;;11.67;10.57;;;17.70;99.90;;;;;;5013710;28;20454;-63
2021/07/18 05:08:53;;;;;;;14.40;11.37;;;17.60;99.90;;;;;;5013601;28;21034;-64
2021/07/18 05:11:20;;;;;;;11.43;10.30;;;17.70;99.90;;;;;;5013398;28;20967;-64
2021/07/18 05:13:47;;;;;;;14.40;11.27;;;17.70;99.90;;;;;;5013302;28;20482;-63
2021/07/18 05:16:14;;;;;;;14.50;11.90;;;17.70;99.90;;;;;;5013568;28;20449;-63
2021/07/18 05:18:40;;;;;;;13.97;12.17;;;17.80;99.90;;;;;;5013489;28;20446;-61
2021/07/18 05:21:07;;;;;;;12.90;11.50;;;17.90;99.90;;;;;;5013081;28;20859;-63
2021/07/18 05:23:37;;;;;;;14.07;12.63;;;18.00;99.90;;;;;;5013380;28;20480;-60
2021/07/18 05:26:04;;;;;;;13.83;11.93;;;18.10;99.90;;;;;;5013356;28;20452;-64
2021/07/18 05:28:31;;;;;;;12.90;11.33;;;18.20;99.90;;;;;;5012938;28;20482;-63
2021/07/18 05:31:00;;;;;;;12.97;11.73;;;18.20;99.90;;;;;;5013061;28;20469;-61
2021/07/18 05:33:27;;;;;;;15.40;12.93;;;18.30;99.90;;;;;;5013111;28;20446;-60
2021/07/18 05:35:55;;;;;;;13.80;12.20;;;18.40;99.90;;;;;;5013209;28;20442;-61
2021/07/18 05:38:22;;;;;;;12.20;11.10;;;18.40;99.90;;;;;;5013260;28;20450;-61
2021/07/18 05:40:50;;;;;;;13.30;12.00;;;18.50;99.90;;;;;;5012538;28;20446;-62
2021/07/18 05:43:17;;;;;;;12.50;11.40;;;18.60;99.90;;;;;;5011643;28;20446;-62
2021/07/18 05:45:44;;;;;;;13.33;12.30;;;18.70;99.90;;;;;;5012630;28;20522;-60
2021/07/18 05:48:10;;;;;;;13.30;12.30;;;18.70;99.90;;;;;;5012825;28;20481;-62
2021/07/18 05:50:37;;;;;;;12.40;11.30;;;18.70;99.90;;;;;;5012992;28;21126;-59
2021/07/18 05:53:04;;;;;;;12.43;11.13;;;18.90;99.90;;;;;;5012549;28;20519;-60
2021/07/18 05:55:31;;;;;;;17.23;11.67;;;19.00;99.90;;;;;;5012893;28;20453;-61
2021/07/18 05:57:59;;;;;;;12.90;11.90;;;19.00;99.90;;;;;;5012854;28;20446;-61
2021/07/18 06:00:26;;;;;;;13.47;12.10;;;19.00;99.90;;;;;;5012527;28;20541;-62
2021/07/18 06:02:52;;;;;;;12.63;11.43;;;19.00;99.90;;;;;;5012528;28;20474;-62
2021/07/18 06:05:19;;;;;;;14.27;13.00;;;19.10;99.90;;;;;;5012763;28;20458;-63
2021/07/18 06:07:46;;;;;;;13.57;12.50;;;19.20;99.90;;;;;;5012794;28;20478;-63
2021/07/18 06:10:13;;;;;;;13.23;12.13;;;19.20;99.90;;;;;;5012496;28;20450;-64
2021/07/18 06:12:40;;;;;;;12.77;11.87;;;19.30;99.90;;;;;;5012549;28;20458;-63
2021/07/18 06:15:09;;;;;;;13.50;12.63;;;19.30;99.90;;;;;;5012640;28;20441;-63
2021/07/18 06:17:37;;;;;;;14.20;13.07;;;19.30;99.90;;;;;;5011838;28;20508;-63
2021/07/18 06:20:08;;;;;;;12.80;12.03;;;19.30;99.90;;;;;;5012258;28;20826;-59
2021/07/18 06:22:36;;;;;;;13.53;12.63;;;19.40;99.90;;;;;;5011686;28;20466;-63
2021/07/18 06:25:05;;;;;;;13.87;12.83;;;19.50;99.90;;;;;;5012290;28;20454;-62
2021/07/18 06:27:32;;;;;;;12.47;11.97;;;19.60;99.90;;;;;;5012159;28;20589;-63
2021/07/18 06:29:59;;;;;;;13.43;12.53;;;19.70;99.90;;;;;;5012376;28;20452;-60
2021/07/18 06:32:28;;;;;;;13.90;13.00;;;19.70;99.90;;;;;;5012450;28;20488;-63
2021/07/18 06:34:55;;;;;;;14.13;13.10;;;19.70;99.90;;;;;;5012275;28;20454;-63
2021/07/18 06:37:22;;;;;;;14.87;13.83;;;19.80;99.90;;;;;;5011776;28;20775;-64
2021/07/18 06:39:48;;;;;;;14.33;13.37;;;19.90;99.90;;;;;;5011693;28;20442;-64
2021/07/18 06:42:16;;;;;;;15.10;14.40;;;19.90;99.90;;;;;;5011749;28;20466;-64
2021/07/18 06:44:42;;;;;;;15.13;14.20;;;20.00;99.90;;;;;;5012092;28;20533;-64
2021/07/18 06:47:09;;;;;;;14.10;13.30;;;20.10;99.90;;;;;;5011898;28;20446;-63
2021/07/18 06:49:37;;;;;;;14.70;13.77;;;20.20;99.90;;;;;;5012133;28;20446;-63
2021/07/18 06:52:05;;;;;;;14.20;13.60;;;20.20;99.90;;;;;;5011185;28;20473;-63
2021/07/18 06:54:32;;;;;;;15.67;14.87;;;20.30;99.90;;;;;;5012073;28;20449;-63
2021/07/18 06:56:59;;;;;;;14.43;13.53;;;20.30;99.90;;;;;;5011492;28;20477;-63
2021/07/18 06:59:26;;;;;;;15.97;14.87;;;20.30;99.90;;;;;;5011430;28;20441;-63
2021/07/18 07:01:53;;;;;;;14.03;13.23;;;20.40;99.90;;;;;;5010862;28;20870;-63
2021/07/18 07:04:19;;;;;;;16.20;15.37;;;20.40;99.90;;;;;;5011839;28;20453;-65
2021/07/18 07:06:48;;;;;;;15.33;14.40;;;20.50;99.90;;;;;;5011928;28;20803;-64
2021/07/18 07:09:15;;;;;;;13.53;12.93;;;20.60;99.90;;;;;;5011318;28;20489;-64
2021/07/18 07:11:41;;;;;;;14.10;13.50;;;20.60;99.90;;;;;;5011358;28;20999;-63
2021/07/18 07:14:09;;;;;;;14.30;13.50;;;20.60;99.90;;;;;;5011720;28;20939;-63
2021/07/18 07:16:36;;;;;;;13.80;13.13;;;20.70;99.90;;;;;;5011422;28;20500;-64
2021/07/18 07:19:03;;;;;;;14.73;13.63;;;20.80;99.90;;;;;;5011343;28;20533;-63
2021/07/18 07:21:31;;;;;;;15.60;14.60;;;21.00;99.90;;;;;;5014633;28;20474;-62
2021/07/18 07:24:02;;;;;;;16.00;15.00;;;21.10;99.90;;;;;;5015720;28;20465;-64
2021/07/18 07:26:29;;;;;;;15.77;14.97;;;21.20;99.90;;;;;;5015642;28;20450;-64
2021/07/18 07:28:56;;;;;;;15.10;14.20;;;21.10;99.90;;;;;;5015340;28;20486;-64
2021/07/18 07:31:24;;;;;;;13.30;12.70;;;21.30;99.90;;;;;;5015067;28;20482;-64
2021/07/18 07:33:51;;;;;;;14.93;14.00;;;21.30;99.90;;;;;;4995687;28;20489;-64
2021/07/18 07:36:18;;;;;;;14.60;13.70;;;21.30;99.90;;;;;;4995795;28;20454;-64
2021/07/18 07:38:46;;;;;;;13.70;13.13;;;21.50;99.90;;;;;;5005956;28;20534;-65
2021/07/18 07:41:15;;;;;;;13.40;12.80;;;21.50;99.90;;;;;;5014744;28;20458;-63
2021/07/18 07:43:41;;;;;;;13.37;12.87;;;21.60;99.90;;;;;;5014918;28;20442;-65
2021/07/18 07:46:09;;;;;;;14.07;13.47;;;21.70;99.90;;;;;;5015306;28;20450;-65
2021/07/18 07:48:36;;;;;;;13.80;13.20;;;21.80;99.90;;;;;;5014821;28;20838;-64
2021/07/18 07:51:04;;;;;;;13.23;12.63;;;21.90;99.90;;;;;;5014906;28;20472;-62
2021/07/18 07:53:32;;;;;;;13.50;12.90;;;21.60;99.90;;;;;;5014992;28;20493;-63
2021/07/18 07:55:59;;;;;;;14.07;13.17;;;21.70;99.90;;;;;;5014931;28;20847;-66
2021/07/18 07:58:27;;;;;;;13.00;12.50;;;21.80;99.90;;;;;;5014729;28;20450;-64
2021/07/18 08:00:54;;;;;;;14.30;13.60;;;21.90;99.90;;;;;;5014936;28;20492;-65
2021/07/18 08:03:22;;;;;;;12.77;12.17;;;21.80;99.90;;;;;;5014620;28;20965;-66
2021/07/18 08:05:50;;;;;;;12.73;12.23;;;21.80;99.90;;;;;;5014887;28;20457;-64
2021/07/18 08:08:18;;;;;;;13.37;12.87;;;22.00;99.90;;;;;;5014906;28;20489;-65
2021/07/18 08:10:45;;;;;;;13.40;12.80;;;22.10;99.90;;;;;;5014681;28;20866;-66
2021/07/18 08:13:12;;;;;;;13.53;12.90;;;22.20;99.90;;;;;;5014626;28;20453;-64
2021/07/18 08:15:41;;;;;;;13.27;12.70;;;22.30;99.90;;;;;;5013952;28;20534;-64
2021/07/18 08:18:09;;;;;;;13.77;13.27;;;22.40;99.90;;;;;;5014636;28;20446;-63
2021/07/18 08:20:37;;;;;;;13.30;12.80;;;22.50;99.90;;;;;;5014028;28;20453;-63
2021/07/18 08:23:05;;;;;;;13.33;12.83;;;22.60;99.90;;;;;;5014189;28;20446;-66
2021/07/18 08:25:31;;;;;;;15.27;13.87;;;22.70;99.90;;;;;;5014518;28;20453;-65
2021/07/18 08:27:58;;;;;;;14.90;14.13;;;22.70;99.90;;;;;;5014319;28;20489;-65
2021/07/18 08:30:25;;;;;;;14.07;13.47;;;22.80;99.90;;;;;;5014086;28;20457;-64
2021/07/18 08:32:53;;;;;;;15.47;14.80;;;22.70;99.90;;;;;;5011964;28;20474;-66
2021/07/18 08:35:21;;;;;;;14.73;14.00;;;22.70;99.90;;;;;;5014277;28;20442;-64
2021/07/18 08:37:48;;;;;;;15.27;14.57;;;22.70;99.90;;;;;;5012656;28;20845;-63
2021/07/18 08:40:16;;;;;;;14.90;14.30;;;22.70;99.90;;;;;;5014582;28;20452;-66
2021/07/18 08:42:43;;;;;;;14.60;13.97;;;22.60;99.90;;;;;;5014975;28;20466;-68
2021/07/18 08:45:12;;;;;;;15.10;14.40;;;22.70;99.90;;;;;;5016400;28;20456;-68
2021/07/18 08:47:39;;;;;;;14.30;13.60;;;22.70;99.90;;;;;;5015085;28;20457;-67
2021/07/18 08:50:10;;;;;;;14.37;13.67;;;22.90;99.90;;;;;;5015582;28;20481;-64
2021/07/18 08:52:37;;;;;;;14.97;14.13;;;22.90;99.90;;;;;;5015498;28;20494;-64
2021/07/18 08:55:08;;;;;;;14.90;14.30;;;23.00;99.90;;;;;;5014582;28;20809;-63
2021/07/18 08:57:39;;;;;;;14.27;13.77;;;22.90;99.90;;;;;;5014228;28;20452;-64
2021/07/18 09:00:07;;;;;;;14.70;14.00;;;22.90;99.90;;;;;;5012746;28;20534;-65
2021/07/18 09:02:41;;;;;;;14.70;14.10;;;23.10;99.90;;;;;;5013391;28;20461;-63
2021/07/18 09:05:15;;;;;;;14.77;14.10;;;23.10;99.90;;;;;;5013826;28;20811;-64
2021/07/18 09:07:59;;;;;;;14.70;14.10;;;23.20;99.90;;;;;;5013804;28;20469;-65
2021/07/18 09:10:31;;;;;;;14.60;13.87;;;23.40;99.90;;;;;;5013951;28;20450;-64
2021/07/18 09:13:09;;;;;;;15.33;14.63;;;23.50;99.90;;;;;;4993450;28;20477;-63
2021/07/18 09:15:45;;;;;;;14.90;14.30;;;23.40;99.90;;;;;;4994112;28;20538;-64
2021/07/18 09:18:19;;;;;;;15.83;15.23;;;23.20;99.90;;;;;;4993998;28;20485;-63
2021/07/18 09:20:56;;;;;;;14.53;14.03;;;23.20;99.90;;;;;;5010760;28;20492;-63
2021/07/18 09:23:25;;;;;;;15.23;14.53;;;23.20;99.90;;;;;;5012970;28;20449;-63
2021/07/18 09:26:15;;;;;;;16.20;15.30;;;23.40;99.90;;;;;;5013368;28;20446;-64
2021/07/18 09:28:43;;;;;;;16.60;15.80;;;23.30;99.90;;;;;;5013262;28;20840;-65
2021/07/18 09:31:29;;;;;;;16.30;15.60;;;23.40;99.90;;;;;;5012732;28;20489;-64
2021/07/18 09:34:13;;;;;;;15.03;14.43;;;23.40;99.90;;;;;;5013503;28;20928;-64
2021/07/18 09:36:41;;;;;;;15.70;15.10;;;23.70;99.90;;;;;;5013229;28;20874;-64
2021/07/18 09:39:10;;;;;;;16.40;15.40;;;23.80;99.90;;;;;;5013024;28;20442;-64
2021/07/18 09:41:37;;;;;;;16.40;15.50;;;23.80;99.90;;;;;;5013074;28;20959;-65
2021/07/18 09:44:05;;;;;;;17.67;16.50;;;23.90;99.90;;;;;;5012727;28;20457;-65
2021/07/18 09:46:33;;;;;;;20.53;17.93;;;24.10;99.90;;;;;;5013212;28;20452;-65
2021/07/18 09:49:03;;;;;;;16.77;15.90;;;24.20;99.90;;;;;;5013015;28;20813;-65
2021/07/18 09:51:31;;;;;;;18.23;16.93;;;24.20;99.90;;;;;;5012767;28;20990;-65
2021/07/18 09:54:10;;;;;;;18.03;16.83;;;24.20;99.90;;;;;;5011804;28;20792;-65
2021/07/18 09:56:37;;;;;;;18.03;16.90;;;24.30;99.90;;;;;;5012976;28;20507;-65
2021/07/18 09:59:05;;;;;;;16.90;16.10;;;24.40;99.90;;;;;;5013064;28;20831;-65
2021/07/18 10:01:33;;;;;;;18.00;16.77;;;24.40;99.90;;;;;;5012591;28;20470;-65
2021/07/18 10:04:01;;;;;;;17.77;16.70;;;24.40;99.90;;;;;;5012976;28;20955;-65
2021/07/18 10:06:30;;;;;;;17.50;16.50;;;24.50;99.90;;;;;;5012751;28;20442;-66
2021/07/18 10:08:58;;;;;;;17.10;16.10;;;24.60;99.90;;;;;;5012377;28;20509;-66
2021/07/18 10:11:28;;;;;;;17.27;16.47;;;24.80;99.90;;;;;;5012440;28;20484;-65
2021/07/18 10:13:56;;;;;;;17.70;16.50;;;24.70;99.90;;;;;;5012414;28;20450;-65
2021/07/18 10:16:25;;;;;;;16.40;15.40;;;25.00;99.90;;;;;;5012736;28;20445;-66
2021/07/18 10:18:54;;;;;;;17.33;16.43;;;24.90;99.20;;;;;;5012391;28;20442;-64
2021/07/18 10:21:23;;;;;;;16.63;15.73;;;25.00;99.30;;;;;;5012193;28;20470;-64
2021/07/18 10:23:52;;;;;;;16.73;16.03;;;25.10;99.60;;;;;;5012385;28;20442;-65
2021/07/18 10:26:20;;;;;;;17.47;16.60;;;25.20;99.40;;;;;;5012187;28;20952;-65
2021/07/18 10:28:50;;;;;;;16.83;15.97;;;25.20;98.50;;;;;;5012407;28;20493;-63
2021/07/18 10:31:22;;;;;;;17.13;16.23;;;25.30;98.10;;;;;;5011898;28;20478;-62
2021/07/18 10:33:50;;;;;;;17.00;16.07;;;25.60;98.70;;;;;;5012784;28;20450;-64
2021/07/18 10:36:20;;;;;;;16.47;15.70;;;25.60;97.40;;;;;;5012774;28;20537;-65
2021/07/18 10:38:47;;;;;;;16.97;16.17;;;25.70;97.70;;;;;;5012839;28;20842;-65
2021/07/18 10:41:15;;;;;;;17.70;16.70;;;25.80;97.50;;;;;;5012101;28;20473;-65
2021/07/18 10:43:47;;;;;;;16.80;16.10;;;26.00;97.40;;;;;;5012096;28;20817;-65
2021/07/18 10:46:17;;;;;;;16.77;16.13;;;26.00;96.30;;;;;;5012425;28;20908;-64
2021/07/18 10:48:46;;;;;;;16.40;15.70;;;26.20;95.80;;;;;;5012238;28;20481;-66
2021/07/18 10:51:14;;;;;;;17.17;16.47;;;26.10;94.60;;;;;;5012239;28;20466;-66
2021/07/18 10:53:41;;;;;;;17.50;16.70;;;26.30;93.90;;;;;;5012130;28;20500;-65
2021/07/18 10:56:08;;;;;;;18.07;17.23;;;26.70;94.90;;;;;;5011525;28;20450;-65
2021/07/18 10:58:54;;;;;;;16.20;15.50;;;26.70;92.60;;;;;;5011988;28;20434;-65
2021/07/18 11:01:36;;;;;;;17.27;16.60;;;26.90;92.30;;;;;;5011984;28;20531;-65
2021/07/18 11:04:05;;;;;;;16.93;16.27;;;26.90;91.70;;;;;;5011791;28;20446;-66
2021/07/18 11:06:34;;;;;;;16.73;15.90;;;26.70;90.80;;;;;;4992355;28;20447;-65
2021/07/18 11:09:18;;;;;;;16.80;16.00;;;26.70;91.30;;;;;;5006876;28;20485;-64
2021/07/18 11:11:48;;;;;;;16.23;15.60;;;26.90;91.70;;;;;;5011715;28;20535;-66
2021/07/18 11:14:31;;;;;;;16.87;16.03;;;27.10;90.80;;;;;;5012298;28;20476;-64
2021/07/18 11:17:01;;;;;;;17.47;16.67;;;27.10;91.70;;;;;;5012139;28;20446;-64
2021/07/18 11:20:00;;;;;;;17.47;16.77;;;27.30;90.60;;;;;;5013429;28;20472;-67
2021/07/18 11:23:01;;;;;;;18.17;17.17;;;27.70;90.70;;;;;;5014102;28;20488;-67
2021/07/18 11:25:47;;;;;;;16.33;15.60;;;28.10;88.90;;;;;;5010900;28;20453;-67
2021/07/18 11:28:48;;;;;;;17.60;16.80;;;28.50;82.70;;;;;;5013696;28;20446;-67
2021/07/18 11:31:27;;;;;;;17.67;16.97;;;28.70;80.60;;;;;;5013206;28;20823;-67
2021/07/18 11:33:58;;;;;;;18.13;17.53;;;29.00;75.70;;;;;;5013689;28;20842;-67
2021/07/18 11:36:52;;;;;;;18.27;17.47;;;29.30;68.40;;;;;;5013540;28;20446;-67
2021/07/18 11:39:20;;;;;;;20.13;19.23;;;29.60;67.60;;;;;;5008178;28;21150;-67
2021/07/18 11:41:48;;;;;;;18.70;18.00;;;30.70;65.20;;;;;;5000421;28;20525;-67
2021/07/18 11:44:17;;;;;;;20.17;19.40;;;31.10;59.50;;;;;;5000249;28;20486;-67
2021/07/18 11:46:45;;;;;;;20.80;19.80;;;32.30;57.30;;;;;;5000176;28;20460;-67
2021/07/18 11:49:15;;;;;;;18.38;17.58;;;33.40;54.80;;;;;;5000053;28;20233;-67
2021/07/18 11:51:45;;;;;;;18.85;18.10;;;34.10;49.60;;;;;;4999844;28;20226;-67
2021/07/18 11:54:13;;;;;;;19.95;19.05;;;35.40;48.00;;;;;;4999807;28;20205;-67
2021/07/18 11:56:41;;;;;;;20.20;18.88;;;37.00;43.80;;;;;;4999754;28;20213;-67
2021/07/18 11:59:09;;;;;;;18.83;18.23;;;37.50;42.90;;;;;;4999666;28;20202;-67
2021/07/18 12:01:38;;;;;;;18.92;18.23;;;36.80;41.10;;;;;;4999680;28;20222;-68
2021/07/18 12:04:07;;;;;;;20.20;19.50;;;37.30;40.00;;;;;;5000288;28;20206;-67
2021/07/18 12:06:36;;;;;;;19.58;18.88;;;39.70;38.90;;;;;;5001411;28;20250;-68
2021/07/18 12:09:12;;;;;;;19.40;18.70;;;40.40;37.40;;;;;;5003217;28;20211;-68
2021/07/18 12:11:38;;;;;;;19.55;18.75;;;39.70;36.50;;;;;;5003073;28;20284;-68
2021/07/18 12:14:05;;;;;;;19.48;18.88;;;41.10;35.30;;;;;;5003269;28;20209;-68
2021/07/18 12:16:32;;;;;;;19.60;18.75;;;41.60;33.90;;;;;;5003035;28;20217;-69
2021/07/18 12:18:59;;;;;;;19.35;18.52;;;41.60;33.70;;;;;;5003134;28;20213;-69
2021/07/18 12:21:27;;;;;;;19.45;18.55;;;42.50;33.00;;;;;;5002927;28;20673;-69
2021/07/18 12:24:21;;;;;;;18.88;18.15;;;43.80;31.80;;;;;;5002852;28;20210;-69
2021/07/18 12:26:50;;;;;;;19.13;18.52;;;44.70;30.40;;;;;;5003303;28;20217;-69
2021/07/18 12:29:18;;;;;;;20.10;19.40;;;43.50;29.70;;;;;;5003148;28;20342;-68
2021/07/18 12:31:46;;;;;;;19.58;18.60;;;43.20;30.00;;;;;;5003275;28;20242;-67
2021/07/18 12:34:14;;;;;;;20.20;19.45;;;41.50;30.50;;;;;;5002934;28;20202;-67
2021/07/18 12:36:54;;;;;;;20.75;19.83;;;42.70;31.60;;;;;;5003096;28;20202;-68